RPB7438 SKRG-MDPC
Flight info
| Callsign | RPB7438 |
|---|---|
| Flight time | 2h 11m |
| Altitude | 36000 |
| Route | BIVIG1B BIVIG UW3 BAQ/N0449F370 UW5 SATMI UM525 VESKA VESKA1W |
| Aircraft | B738/M-SDE2E3FGHIRWXY/LB1 |
Departure
| Time | 2026-04-26 18:38 |
|---|---|
| Airport | Jose Maria Córdova International Airport (SKRG) |
Arrival
| Time | 2026-04-26 20:50 |
|---|---|
| Airport | Punta Cana International Airport (MDPC) |
| Time | Latitude | Longitude | Altitude | Speed | Heading |
|---|---|---|---|---|---|
| 2026-04-26 18:02 | 6.17360 | -75.42957 | 7015 ft | 0 kts | 193° |
| 2026-04-26 18:20 | 6.17366 | -75.42955 | 7015 ft | 2 kts | 191° |
| 2026-04-26 18:20 | 6.17378 | -75.42953 | 7043 ft | 3 kts | 176° |
| 2026-04-26 18:21 | 6.17402 | -75.42961 | 7018 ft | 3 kts | 133° |
| 2026-04-26 18:21 | 6.17411 | -75.42976 | 7020 ft | 2 kts | 104° |
| 2026-04-26 18:21 | 6.17412 | -75.42980 | 7019 ft | 1 kts | 102° |
| 2026-04-26 18:27 | 6.17412 | -75.42979 | 7015 ft | 1 kts | 102° |
| 2026-04-26 18:27 | 6.17408 | -75.42945 | 7015 ft | 8 kts | 84° |
| 2026-04-26 18:27 | 6.17409 | -75.42880 | 7017 ft | 11 kts | 104° |
| 2026-04-26 18:28 | 6.17388 | -75.42794 | 7015 ft | 14 kts | 103° |
| 2026-04-26 18:28 | 6.17338 | -75.42696 | 7015 ft | 17 kts | 125° |
| 2026-04-26 18:28 | 6.17245 | -75.42619 | 7016 ft | 18 kts | 176° |
| 2026-04-26 18:28 | 6.17122 | -75.42615 | 7015 ft | 18 kts | 178° |
| 2026-04-26 18:29 | 6.17013 | -75.42571 | 7017 ft | 17 kts | 149° |
| 2026-04-26 18:29 | 6.16913 | -75.42512 | 7020 ft | 16 kts | 149° |
| 2026-04-26 18:29 | 6.16809 | -75.42485 | 7013 ft | 14 kts | 180° |
| 2026-04-26 18:29 | 6.16748 | -75.42485 | 7017 ft | 9 kts | 180° |
| 2026-04-26 18:30 | 6.16685 | -75.42484 | 7009 ft | 10 kts | 179° |
| 2026-04-26 18:30 | 6.16612 | -75.42483 | 6998 ft | 11 kts | 179° |
| 2026-04-26 18:30 | 6.16527 | -75.42482 | 6998 ft | 13 kts | 179° |
| 2026-04-26 18:30 | 6.16431 | -75.42483 | 6994 ft | 15 kts | 181° |
| 2026-04-26 18:31 | 6.16326 | -75.42482 | 6994 ft | 16 kts | 179° |
| 2026-04-26 18:31 | 6.16212 | -75.42481 | 6987 ft | 17 kts | 179° |
| 2026-04-26 18:31 | 6.16097 | -75.42480 | 6981 ft | 16 kts | 179° |
| 2026-04-26 18:31 | 6.15987 | -75.42479 | 6979 ft | 16 kts | 180° |
| 2026-04-26 18:32 | 6.15881 | -75.42479 | 6979 ft | 15 kts | 180° |
| 2026-04-26 18:32 | 6.15779 | -75.42479 | 6979 ft | 14 kts | 180° |
| 2026-04-26 18:32 | 6.15681 | -75.42479 | 6980 ft | 14 kts | 180° |
| 2026-04-26 18:32 | 6.15587 | -75.42477 | 6980 ft | 13 kts | 179° |
| 2026-04-26 18:33 | 6.15498 | -75.42477 | 6979 ft | 13 kts | 180° |
| 2026-04-26 18:33 | 6.15410 | -75.42476 | 6978 ft | 12 kts | 180° |
| 2026-04-26 18:33 | 6.15326 | -75.42476 | 6978 ft | 12 kts | 180° |
| 2026-04-26 18:33 | 6.15243 | -75.42476 | 6977 ft | 12 kts | 180° |
| 2026-04-26 18:34 | 6.15162 | -75.42476 | 6977 ft | 11 kts | 179° |
| 2026-04-26 18:34 | 6.15083 | -75.42475 | 6977 ft | 11 kts | 179° |
| 2026-04-26 18:34 | 6.15006 | -75.42474 | 6976 ft | 11 kts | 179° |
| 2026-04-26 18:34 | 6.14932 | -75.42472 | 6976 ft | 11 kts | 169° |
| 2026-04-26 18:35 | 6.14901 | -75.42424 | 6976 ft | 0 kts | 91° |
| 2026-04-26 18:36 | 6.14901 | -75.42417 | 6976 ft | 2 kts | 91° |
| 2026-04-26 18:37 | 6.14900 | -75.42395 | 6976 ft | 5 kts | 91° |
| 2026-04-26 18:37 | 6.14917 | -75.42345 | 6975 ft | 11 kts | 46° |
| 2026-04-26 18:37 | 6.15002 | -75.42305 | 6975 ft | 18 kts | 4° |
| 2026-04-26 18:37 | 6.15264 | -75.42305 | 6979 ft | 67 kts | 359° |
| 2026-04-26 18:38 | 6.15941 | -75.42311 | 6979 ft | 125 kts | 360° |
| 2026-04-26 18:38 | 6.16979 | -75.42317 | 7013 ft | 171 kts | 359° |
| 2026-04-26 18:38 | 6.18281 | -75.42320 | 7329 ft | 194 kts | 0° |
| 2026-04-26 18:38 | 6.19616 | -75.42305 | 8203 ft | 192 kts | 0° |
| 2026-04-26 18:39 | 6.20975 | -75.42266 | 8805 ft | 201 kts | 8° |
| 2026-04-26 18:39 | 6.22268 | -75.41609 | 8986 ft | 224 kts | 49° |
| 2026-04-26 18:39 | 6.22891 | -75.40134 | 9176 ft | 244 kts | 88° |
| 2026-04-26 18:39 | 6.22599 | -75.38394 | 9383 ft | 263 kts | 99° |
| 2026-04-26 18:40 | 6.22858 | -75.36551 | 9657 ft | 279 kts | 65° |
| 2026-04-26 18:40 | 6.23857 | -75.34805 | 9993 ft | 296 kts | 58° |
| 2026-04-26 18:40 | 6.24959 | -75.32979 | 10297 ft | 318 kts | 60° |
| 2026-04-26 18:40 | 6.26040 | -75.30983 | 10483 ft | 340 kts | 62° |
| 2026-04-26 18:41 | 6.27125 | -75.28831 | 10952 ft | 349 kts | 63° |
| 2026-04-26 18:41 | 6.28343 | -75.26707 | 11585 ft | 352 kts | 50° |
| 2026-04-26 18:41 | 6.30207 | -75.25126 | 12267 ft | 354 kts | 28° |
| 2026-04-26 18:41 | 6.32539 | -75.24331 | 12922 ft | 357 kts | 7° |
| 2026-04-26 18:42 | 6.35028 | -75.24235 | 13574 ft | 360 kts | 359° |
| 2026-04-26 18:42 | 6.37561 | -75.24277 | 14148 ft | 364 kts | 359° |
| 2026-04-26 18:42 | 6.40080 | -75.24324 | 14684 ft | 368 kts | 359° |
| 2026-04-26 18:42 | 6.42654 | -75.24346 | 15245 ft | 371 kts | 360° |
| 2026-04-26 18:43 | 6.45254 | -75.24351 | 15805 ft | 375 kts | 360° |
| 2026-04-26 18:43 | 6.47869 | -75.24275 | 16342 ft | 378 kts | 3° |
| 2026-04-26 18:43 | 6.50509 | -75.24068 | 16893 ft | 382 kts | 5° |
| 2026-04-26 18:43 | 6.53172 | -75.23814 | 17439 ft | 385 kts | 5° |
| 2026-04-26 18:44 | 6.55857 | -75.23550 | 17977 ft | 389 kts | 5° |
| 2026-04-26 18:44 | 6.58528 | -75.23294 | 18483 ft | 392 kts | 5° |
| 2026-04-26 18:44 | 6.61262 | -75.23041 | 18957 ft | 395 kts | 5° |
| 2026-04-26 18:44 | 6.64009 | -75.22795 | 19426 ft | 397 kts | 5° |
| 2026-04-26 18:45 | 6.66775 | -75.22552 | 19885 ft | 400 kts | 5° |
| 2026-04-26 18:45 | 6.69562 | -75.22310 | 20324 ft | 403 kts | 5° |
| 2026-04-26 18:45 | 6.72369 | -75.22068 | 20765 ft | 407 kts | 5° |
| 2026-04-26 18:45 | 6.75201 | -75.21824 | 21197 ft | 410 kts | 5° |
| 2026-04-26 18:46 | 6.78050 | -75.21578 | 21614 ft | 413 kts | 5° |
| 2026-04-26 18:46 | 6.80894 | -75.21333 | 22008 ft | 416 kts | 5° |
| 2026-04-26 18:46 | 6.83791 | -75.21082 | 22433 ft | 419 kts | 5° |
| 2026-04-26 18:46 | 6.86701 | -75.20831 | 22850 ft | 422 kts | 5° |
| 2026-04-26 18:47 | 6.89642 | -75.20577 | 23227 ft | 425 kts | 5° |
| 2026-04-26 18:47 | 6.92604 | -75.20321 | 23590 ft | 428 kts | 5° |
| 2026-04-26 18:47 | 6.95591 | -75.20063 | 23899 ft | 431 kts | 5° |
| 2026-04-26 18:47 | 6.98607 | -75.19802 | 24213 ft | 434 kts | 5° |
| 2026-04-26 18:48 | 7.01584 | -75.19545 | 24529 ft | 436 kts | 6° |
| 2026-04-26 18:48 | 7.04613 | -75.19211 | 24847 ft | 438 kts | 8° |
| 2026-04-26 18:48 | 7.07643 | -75.18772 | 25173 ft | 440 kts | 9° |
| 2026-04-26 18:48 | 7.10680 | -75.18290 | 25495 ft | 442 kts | 10° |
| 2026-04-26 18:49 | 7.13731 | -75.17797 | 25803 ft | 445 kts | 10° |
| 2026-04-26 18:49 | 7.16807 | -75.17307 | 26096 ft | 447 kts | 9° |
| 2026-04-26 18:49 | 7.19894 | -75.16824 | 26387 ft | 450 kts | 9° |
| 2026-04-26 18:49 | 7.22955 | -75.16354 | 26686 ft | 452 kts | 9° |
| 2026-04-26 18:50 | 7.26078 | -75.15879 | 26980 ft | 454 kts | 9° |
| 2026-04-26 18:50 | 7.29212 | -75.15406 | 27253 ft | 457 kts | 9° |
| 2026-04-26 18:50 | 7.32373 | -75.14929 | 27517 ft | 459 kts | 9° |
| 2026-04-26 18:50 | 7.35552 | -75.14450 | 27766 ft | 462 kts | 9° |
| 2026-04-26 18:51 | 7.38746 | -75.13968 | 28038 ft | 464 kts | 9° |
| 2026-04-26 18:51 | 7.41920 | -75.13489 | 28307 ft | 466 kts | 9° |
| 2026-04-26 18:51 | 7.45139 | -75.13002 | 28557 ft | 469 kts | 9° |
| 2026-04-26 18:51 | 7.48375 | -75.12513 | 28817 ft | 471 kts | 9° |
| 2026-04-26 18:52 | 7.51628 | -75.12021 | 29071 ft | 473 kts | 9° |
| 2026-04-26 18:52 | 7.53791 | -75.11694 | 29229 ft | 475 kts | 9° |
| 2026-04-26 18:52 | 7.58189 | -75.11029 | 29550 ft | 478 kts | 10° |
| 2026-04-26 18:52 | 7.61485 | -75.10531 | 29801 ft | 480 kts | 10° |
| 2026-04-26 18:53 | 7.64801 | -75.10029 | 30001 ft | 482 kts | 10° |
| 2026-04-26 18:53 | 7.68094 | -75.09531 | 30187 ft | 484 kts | 10° |
| 2026-04-26 18:53 | 7.71437 | -75.09025 | 30400 ft | 486 kts | 10° |
| 2026-04-26 18:53 | 7.74782 | -75.08516 | 30646 ft | 486 kts | 10° |
| 2026-04-26 18:54 | 7.78128 | -75.08001 | 30967 ft | 485 kts | 10° |
| 2026-04-26 18:54 | 7.80382 | -75.07654 | 31192 ft | 484 kts | 10° |
| 2026-04-26 18:54 | 7.83667 | -75.07146 | 31516 ft | 483 kts | 10° |
| 2026-04-26 18:54 | 7.86995 | -75.06631 | 31800 ft | 483 kts | 9° |
| 2026-04-26 18:55 | 7.90321 | -75.06118 | 32098 ft | 483 kts | 9° |
| 2026-04-26 18:55 | 7.93642 | -75.05605 | 32403 ft | 482 kts | 9° |
| 2026-04-26 18:55 | 7.96960 | -75.05093 | 32724 ft | 481 kts | 9° |
| 2026-04-26 18:55 | 8.00266 | -75.04582 | 33032 ft | 480 kts | 9° |
| 2026-04-26 18:56 | 8.03528 | -75.04079 | 33329 ft | 480 kts | 9° |
| 2026-04-26 18:56 | 8.06838 | -75.03568 | 33627 ft | 480 kts | 9° |
| 2026-04-26 18:56 | 8.10135 | -75.03060 | 33913 ft | 479 kts | 9° |
| 2026-04-26 18:56 | 8.13440 | -75.02550 | 34183 ft | 478 kts | 9° |
| 2026-04-26 18:57 | 8.16734 | -75.02041 | 34444 ft | 478 kts | 9° |
| 2026-04-26 18:57 | 8.18911 | -75.01705 | 34620 ft | 477 kts | 9° |
| 2026-04-26 18:57 | 8.23261 | -75.01033 | 34974 ft | 476 kts | 8° |
| 2026-04-26 18:57 | 8.26532 | -75.00528 | 35246 ft | 475 kts | 8° |
| 2026-04-26 18:58 | 8.29798 | -75.00023 | 35496 ft | 474 kts | 8° |
| 2026-04-26 18:58 | 8.33073 | -74.99517 | 35736 ft | 473 kts | 8° |
| 2026-04-26 18:58 | 8.36335 | -74.99013 | 35863 ft | 476 kts | 8° |
| 2026-04-26 18:58 | 8.39586 | -74.98511 | 35856 ft | 479 kts | 8° |
| 2026-04-26 18:59 | 8.46170 | -74.97493 | 35857 ft | 476 kts | 8° |
| 2026-04-26 18:59 | 8.52678 | -74.96486 | 35860 ft | 471 kts | 8° |
| 2026-04-26 19:00 | 8.59161 | -74.95483 | 35871 ft | 470 kts | 8° |
| 2026-04-26 19:00 | 8.65595 | -74.94487 | 35865 ft | 470 kts | 8° |
| 2026-04-26 19:01 | 8.72069 | -74.93485 | 35872 ft | 470 kts | 8° |
| 2026-04-26 19:01 | 8.78549 | -74.92481 | 35872 ft | 471 kts | 8° |
| 2026-04-26 19:02 | 8.85048 | -74.91474 | 35867 ft | 472 kts | 8° |
| 2026-04-26 19:02 | 8.90462 | -74.90635 | 35874 ft | 473 kts | 8° |
| 2026-04-26 19:03 | 8.98053 | -74.89458 | 35878 ft | 474 kts | 8° |
| 2026-04-26 19:03 | 9.04593 | -74.88444 | 35878 ft | 476 kts | 8° |
| 2026-04-26 19:04 | 9.11144 | -74.87427 | 35872 ft | 476 kts | 8° |
| 2026-04-26 19:04 | 9.17672 | -74.86414 | 35879 ft | 477 kts | 8° |
| 2026-04-26 19:05 | 9.27521 | -74.84886 | 35876 ft | 476 kts | 7° |
| 2026-04-26 19:06 | 9.34125 | -74.84634 | 35886 ft | 475 kts | 358° |
| 2026-04-26 19:06 | 9.40738 | -74.84793 | 35880 ft | 474 kts | 358° |
| 2026-04-26 19:07 | 9.47301 | -74.84883 | 35878 ft | 474 kts | 359° |
| 2026-04-26 19:07 | 9.53900 | -74.84936 | 35883 ft | 474 kts | 359° |
| 2026-04-26 19:08 | 9.60498 | -74.84990 | 35882 ft | 473 kts | 359° |
| 2026-04-26 19:08 | 9.67095 | -74.85046 | 35884 ft | 473 kts | 359° |
| 2026-04-26 19:09 | 9.73650 | -74.85101 | 35886 ft | 473 kts | 359° |
| 2026-04-26 19:09 | 9.80251 | -74.85157 | 35888 ft | 473 kts | 359° |
| 2026-04-26 19:10 | 9.86807 | -74.85213 | 35884 ft | 473 kts | 359° |
| 2026-04-26 19:10 | 9.93405 | -74.85269 | 35885 ft | 473 kts | 359° |
| 2026-04-26 19:11 | 10.00005 | -74.85325 | 35887 ft | 474 kts | 359° |
| 2026-04-26 19:11 | 10.06571 | -74.85380 | 35884 ft | 474 kts | 359° |
| 2026-04-26 19:12 | 10.13169 | -74.85436 | 35887 ft | 474 kts | 359° |
| 2026-04-26 19:12 | 10.19781 | -74.85492 | 35884 ft | 474 kts | 359° |
| 2026-04-26 19:13 | 10.26350 | -74.85548 | 35879 ft | 474 kts | 359° |
| 2026-04-26 19:13 | 10.32972 | -74.85604 | 35882 ft | 474 kts | 359° |
| 2026-04-26 19:14 | 10.39584 | -74.85661 | 35878 ft | 474 kts | 359° |
| 2026-04-26 19:14 | 10.46164 | -74.85716 | 35881 ft | 475 kts | 359° |
| 2026-04-26 19:15 | 10.52753 | -74.85772 | 35876 ft | 475 kts | 359° |
| 2026-04-26 19:15 | 10.59359 | -74.85829 | 35882 ft | 475 kts | 359° |
| 2026-04-26 19:16 | 10.65987 | -74.85885 | 35879 ft | 475 kts | 359° |
| 2026-04-26 19:16 | 10.72605 | -74.85941 | 35882 ft | 475 kts | 359° |
| 2026-04-26 19:17 | 10.79185 | -74.85949 | 35880 ft | 476 kts | 3° |
| 2026-04-26 19:17 | 10.85716 | -74.84862 | 36017 ft | 474 kts | 12° |
| 2026-04-26 19:17 | 10.88948 | -74.84155 | 36135 ft | 475 kts | 12° |
| 2026-04-26 19:18 | 10.92190 | -74.83436 | 36258 ft | 476 kts | 12° |
| 2026-04-26 19:18 | 10.95425 | -74.82726 | 36379 ft | 477 kts | 12° |
| 2026-04-26 19:18 | 10.98676 | -74.82024 | 36508 ft | 477 kts | 11° |
| 2026-04-26 19:18 | 11.01886 | -74.81343 | 36627 ft | 478 kts | 11° |
| 2026-04-26 19:19 | 11.05142 | -74.80659 | 36748 ft | 478 kts | 11° |
| 2026-04-26 19:19 | 11.11622 | -74.79309 | 36877 ft | 474 kts | 11° |
| 2026-04-26 19:20 | 11.18092 | -74.77963 | 36894 ft | 475 kts | 11° |
| 2026-04-26 19:20 | 11.24598 | -74.76608 | 36894 ft | 477 kts | 11° |
| 2026-04-26 19:21 | 11.31132 | -74.75244 | 36886 ft | 479 kts | 11° |
| 2026-04-26 19:21 | 11.37641 | -74.73886 | 36882 ft | 479 kts | 11° |
| 2026-04-26 19:22 | 11.44191 | -74.72517 | 36873 ft | 480 kts | 11° |
| 2026-04-26 19:22 | 11.50690 | -74.71159 | 36885 ft | 479 kts | 11° |
| 2026-04-26 19:23 | 11.57225 | -74.69792 | 36888 ft | 478 kts | 11° |
| 2026-04-26 19:23 | 11.63746 | -74.68428 | 36885 ft | 477 kts | 11° |
| 2026-04-26 19:24 | 11.70258 | -74.67065 | 36876 ft | 476 kts | 11° |
| 2026-04-26 19:24 | 11.79943 | -74.65037 | 36878 ft | 475 kts | 11° |
| 2026-04-26 19:25 | 11.85370 | -74.63900 | 36894 ft | 475 kts | 11° |
| 2026-04-26 19:25 | 11.92903 | -74.62320 | 36893 ft | 474 kts | 11° |
| 2026-04-26 19:26 | 11.99331 | -74.60972 | 36898 ft | 474 kts | 11° |
| 2026-04-26 19:26 | 12.05803 | -74.59614 | 36882 ft | 474 kts | 11° |
| 2026-04-26 19:27 | 12.12280 | -74.58254 | 36887 ft | 475 kts | 11° |
| 2026-04-26 19:27 | 12.18726 | -74.56900 | 36883 ft | 475 kts | 11° |
| 2026-04-26 19:28 | 12.25215 | -74.55537 | 36888 ft | 476 kts | 11° |
| 2026-04-26 19:28 | 12.31708 | -74.54171 | 36888 ft | 476 kts | 11° |
| 2026-04-26 19:29 | 12.38207 | -74.52804 | 36904 ft | 477 kts | 11° |
| 2026-04-26 19:29 | 12.44707 | -74.51436 | 36890 ft | 477 kts | 11° |
| 2026-04-26 19:30 | 12.51180 | -74.50073 | 36895 ft | 477 kts | 11° |
| 2026-04-26 19:30 | 12.56590 | -74.48933 | 36895 ft | 477 kts | 11° |
| 2026-04-26 19:31 | 12.64211 | -74.47326 | 36896 ft | 477 kts | 11° |
| 2026-04-26 19:31 | 12.70691 | -74.45959 | 36895 ft | 477 kts | 11° |
| 2026-04-26 19:32 | 12.77211 | -74.44583 | 36894 ft | 477 kts | 10° |
| 2026-04-26 19:32 | 12.83723 | -74.43208 | 36891 ft | 477 kts | 10° |
| 2026-04-26 19:33 | 12.90240 | -74.41831 | 36891 ft | 477 kts | 10° |
| 2026-04-26 19:33 | 12.96719 | -74.40462 | 36892 ft | 477 kts | 10° |
| 2026-04-26 19:34 | 13.03058 | -74.38423 | 36902 ft | 478 kts | 29° |
| 2026-04-26 19:34 | 13.05821 | -74.36537 | 36889 ft | 478 kts | 40° |
| 2026-04-26 19:34 | 13.08166 | -74.34125 | 36899 ft | 476 kts | 51° |
| 2026-04-26 19:35 | 13.12311 | -74.28880 | 36893 ft | 477 kts | 52° |
| 2026-04-26 19:35 | 13.16465 | -74.23560 | 36893 ft | 478 kts | 52° |
| 2026-04-26 19:36 | 13.19274 | -74.20017 | 36896 ft | 478 kts | 52° |
| 2026-04-26 19:36 | 13.24912 | -74.12980 | 36896 ft | 479 kts | 51° |
| 2026-04-26 19:37 | 13.29156 | -74.07693 | 36896 ft | 480 kts | 52° |
| 2026-04-26 19:37 | 13.33384 | -74.02418 | 36895 ft | 481 kts | 52° |
| 2026-04-26 19:38 | 13.37646 | -73.97095 | 36897 ft | 481 kts | 52° |
| 2026-04-26 19:38 | 13.41879 | -73.91804 | 36901 ft | 482 kts | 52° |
| 2026-04-26 19:39 | 13.46138 | -73.86477 | 36899 ft | 482 kts | 52° |
| 2026-04-26 19:39 | 13.50392 | -73.81152 | 36899 ft | 482 kts | 52° |
| 2026-04-26 19:40 | 13.54648 | -73.75822 | 36896 ft | 482 kts | 52° |
| 2026-04-26 19:40 | 13.58899 | -73.70493 | 36899 ft | 482 kts | 52° |
| 2026-04-26 19:41 | 13.63140 | -73.65157 | 36900 ft | 481 kts | 52° |
| 2026-04-26 19:41 | 13.65952 | -73.61617 | 36896 ft | 481 kts | 52° |
| 2026-04-26 19:42 | 13.71602 | -73.54499 | 36903 ft | 481 kts | 52° |
| 2026-04-26 19:42 | 13.75815 | -73.49188 | 36901 ft | 481 kts | 52° |
| 2026-04-26 19:43 | 13.79361 | -73.44716 | 36902 ft | 481 kts | 52° |
| 2026-04-26 19:43 | 13.83562 | -73.39412 | 36902 ft | 481 kts | 52° |
| 2026-04-26 19:44 | 13.87805 | -73.34055 | 36901 ft | 482 kts | 52° |
| 2026-04-26 19:44 | 13.92111 | -73.28756 | 36901 ft | 482 kts | 50° |
| 2026-04-26 19:45 | 13.96491 | -73.23521 | 36899 ft | 482 kts | 50° |
| 2026-04-26 19:45 | 14.00849 | -73.18305 | 36902 ft | 483 kts | 50° |
| 2026-04-26 19:46 | 14.05223 | -73.13038 | 36903 ft | 483 kts | 50° |
| 2026-04-26 19:46 | 14.09566 | -73.07795 | 36902 ft | 484 kts | 50° |
| 2026-04-26 19:47 | 14.13204 | -73.03399 | 36906 ft | 484 kts | 50° |
| 2026-04-26 19:47 | 14.18321 | -72.97215 | 36905 ft | 485 kts | 50° |
| 2026-04-26 19:48 | 14.22699 | -72.91920 | 36906 ft | 485 kts | 50° |
| 2026-04-26 19:48 | 14.27078 | -72.86620 | 36908 ft | 486 kts | 50° |
| 2026-04-26 19:49 | 14.31458 | -72.81316 | 36907 ft | 486 kts | 50° |
| 2026-04-26 19:49 | 14.35812 | -72.76038 | 36907 ft | 486 kts | 50° |
| 2026-04-26 19:50 | 14.40199 | -72.70719 | 36906 ft | 486 kts | 50° |
| 2026-04-26 19:50 | 14.44618 | -72.65423 | 36909 ft | 486 kts | 50° |
| 2026-04-26 19:51 | 14.49012 | -72.60177 | 36912 ft | 486 kts | 50° |
| 2026-04-26 19:51 | 14.53430 | -72.54886 | 36909 ft | 486 kts | 50° |
| 2026-04-26 19:52 | 14.57812 | -72.49547 | 36907 ft | 486 kts | 51° |
| 2026-04-26 19:52 | 14.62094 | -72.44187 | 36910 ft | 486 kts | 51° |
| 2026-04-26 19:53 | 14.66441 | -72.38840 | 36911 ft | 486 kts | 50° |
| 2026-04-26 19:53 | 14.70821 | -72.33509 | 36913 ft | 486 kts | 50° |
| 2026-04-26 19:54 | 14.75210 | -72.28157 | 36914 ft | 486 kts | 50° |
| 2026-04-26 19:54 | 14.79558 | -72.22839 | 36911 ft | 487 kts | 50° |
| 2026-04-26 19:55 | 14.83930 | -72.17483 | 36910 ft | 487 kts | 50° |
| 2026-04-26 19:55 | 14.88307 | -72.12117 | 36912 ft | 487 kts | 50° |
| 2026-04-26 19:56 | 14.92657 | -72.06780 | 36912 ft | 488 kts | 50° |
| 2026-04-26 19:56 | 14.97046 | -72.01392 | 36914 ft | 489 kts | 50° |
| 2026-04-26 19:57 | 15.01434 | -71.96003 | 36912 ft | 489 kts | 50° |
| 2026-04-26 19:57 | 15.05788 | -71.90650 | 36915 ft | 490 kts | 50° |
| 2026-04-26 19:58 | 15.10180 | -71.85248 | 36911 ft | 490 kts | 50° |
| 2026-04-26 19:58 | 15.14576 | -71.79837 | 36914 ft | 491 kts | 50° |
| 2026-04-26 19:59 | 15.18980 | -71.74411 | 36917 ft | 491 kts | 50° |
| 2026-04-26 19:59 | 15.23352 | -71.69022 | 36917 ft | 491 kts | 50° |
| 2026-04-26 20:00 | 15.27753 | -71.63592 | 36912 ft | 492 kts | 50° |
| 2026-04-26 20:00 | 15.32159 | -71.58154 | 36915 ft | 492 kts | 50° |
| 2026-04-26 20:01 | 15.36562 | -71.52714 | 36921 ft | 492 kts | 50° |
| 2026-04-26 20:01 | 15.40934 | -71.47309 | 36920 ft | 492 kts | 50° |
| 2026-04-26 20:02 | 15.45337 | -71.41860 | 36914 ft | 492 kts | 50° |
| 2026-04-26 20:02 | 15.48997 | -71.37329 | 36922 ft | 492 kts | 50° |
| 2026-04-26 20:03 | 15.54145 | -71.30953 | 36927 ft | 493 kts | 50° |
| 2026-04-26 20:03 | 15.58611 | -71.25564 | 36920 ft | 493 kts | 49° |
| 2026-04-26 20:04 | 15.63083 | -71.20227 | 36923 ft | 493 kts | 49° |
| 2026-04-26 20:04 | 15.67585 | -71.14825 | 36922 ft | 493 kts | 49° |
| 2026-04-26 20:05 | 15.72069 | -71.09427 | 36921 ft | 494 kts | 49° |
| 2026-04-26 20:05 | 15.76540 | -71.04010 | 36923 ft | 494 kts | 50° |
| 2026-04-26 20:06 | 15.80937 | -70.98575 | 36923 ft | 494 kts | 50° |
| 2026-04-26 20:06 | 15.85361 | -70.93097 | 36922 ft | 494 kts | 50° |
| 2026-04-26 20:07 | 15.89795 | -70.87619 | 36922 ft | 495 kts | 50° |
| 2026-04-26 20:07 | 15.94202 | -70.82173 | 36924 ft | 495 kts | 50° |
| 2026-04-26 20:08 | 15.98642 | -70.76682 | 36924 ft | 495 kts | 50° |
| 2026-04-26 20:08 | 16.03528 | -70.71717 | 36941 ft | 494 kts | 38° |
| 2026-04-26 20:09 | 16.08962 | -70.67345 | 36927 ft | 494 kts | 36° |
| 2026-04-26 20:09 | 16.14440 | -70.62991 | 36925 ft | 494 kts | 37° |
| 2026-04-26 20:10 | 16.19833 | -70.58591 | 36924 ft | 495 kts | 37° |
| 2026-04-26 20:10 | 16.25239 | -70.54111 | 36927 ft | 496 kts | 37° |
| 2026-04-26 20:11 | 16.30636 | -70.49620 | 36931 ft | 496 kts | 37° |
| 2026-04-26 20:12 | 16.38706 | -70.42907 | 36930 ft | 497 kts | 37° |
| 2026-04-26 20:12 | 16.44109 | -70.38414 | 36930 ft | 497 kts | 37° |
| 2026-04-26 20:13 | 16.49509 | -70.33920 | 36932 ft | 496 kts | 37° |
| 2026-04-26 20:13 | 16.54913 | -70.29419 | 36930 ft | 496 kts | 37° |
| 2026-04-26 20:14 | 16.60263 | -70.24960 | 36931 ft | 495 kts | 37° |
| 2026-04-26 20:14 | 16.65658 | -70.20459 | 36423 ft | 500 kts | 37° |
| 2026-04-26 20:14 | 16.68376 | -70.18191 | 35888 ft | 499 kts | 37° |
| 2026-04-26 20:15 | 16.71075 | -70.15936 | 35471 ft | 494 kts | 37° |
| 2026-04-26 20:15 | 16.73752 | -70.13698 | 35060 ft | 491 kts | 36° |
| 2026-04-26 20:15 | 16.76409 | -70.11477 | 34645 ft | 487 kts | 36° |
| 2026-04-26 20:15 | 16.79047 | -70.09271 | 34220 ft | 484 kts | 36° |
| 2026-04-26 20:16 | 16.81672 | -70.07076 | 33766 ft | 482 kts | 36° |
| 2026-04-26 20:16 | 16.84248 | -70.04922 | 33312 ft | 479 kts | 36° |
| 2026-04-26 20:16 | 16.86834 | -70.02758 | 32888 ft | 475 kts | 36° |
| 2026-04-26 20:16 | 16.89403 | -70.00608 | 32467 ft | 471 kts | 36° |
| 2026-04-26 20:17 | 16.91949 | -69.98475 | 32056 ft | 467 kts | 36° |
| 2026-04-26 20:17 | 16.94481 | -69.96354 | 31651 ft | 463 kts | 36° |
| 2026-04-26 20:17 | 16.96993 | -69.94249 | 31251 ft | 460 kts | 36° |
| 2026-04-26 20:17 | 16.98644 | -69.92865 | 30989 ft | 457 kts | 35° |
| 2026-04-26 20:18 | 17.01947 | -69.90095 | 30468 ft | 453 kts | 35° |
| 2026-04-26 20:18 | 17.04400 | -69.88037 | 30070 ft | 450 kts | 35° |
| 2026-04-26 20:18 | 17.06832 | -69.85997 | 29621 ft | 447 kts | 35° |
| 2026-04-26 20:18 | 17.09245 | -69.83971 | 29179 ft | 443 kts | 35° |
| 2026-04-26 20:19 | 17.11611 | -69.81985 | 28747 ft | 439 kts | 36° |
| 2026-04-26 20:19 | 17.13980 | -69.79994 | 28342 ft | 435 kts | 36° |
| 2026-04-26 20:19 | 17.16328 | -69.78022 | 27934 ft | 431 kts | 36° |
| 2026-04-26 20:19 | 17.18666 | -69.76057 | 27533 ft | 427 kts | 36° |
| 2026-04-26 20:20 | 17.20974 | -69.74116 | 27143 ft | 424 kts | 36° |
| 2026-04-26 20:20 | 17.23263 | -69.72191 | 26747 ft | 421 kts | 36° |
| 2026-04-26 20:20 | 17.25539 | -69.70276 | 26358 ft | 418 kts | 36° |
| 2026-04-26 20:20 | 17.27774 | -69.68396 | 25976 ft | 415 kts | 36° |
| 2026-04-26 20:21 | 17.30018 | -69.66507 | 25588 ft | 412 kts | 36° |
| 2026-04-26 20:21 | 17.32251 | -69.64626 | 25200 ft | 410 kts | 36° |
| 2026-04-26 20:21 | 17.34472 | -69.62755 | 24802 ft | 408 kts | 36° |
| 2026-04-26 20:21 | 17.36678 | -69.60896 | 24412 ft | 406 kts | 37° |
| 2026-04-26 20:22 | 17.38877 | -69.59043 | 24018 ft | 405 kts | 37° |
| 2026-04-26 20:22 | 17.41070 | -69.57194 | 23634 ft | 403 kts | 37° |
| 2026-04-26 20:22 | 17.43255 | -69.55351 | 23199 ft | 402 kts | 37° |
| 2026-04-26 20:22 | 17.45401 | -69.53540 | 22787 ft | 399 kts | 37° |
| 2026-04-26 20:23 | 17.47556 | -69.51720 | 22390 ft | 396 kts | 37° |
| 2026-04-26 20:23 | 17.49689 | -69.49919 | 22007 ft | 393 kts | 37° |
| 2026-04-26 20:23 | 17.51810 | -69.48128 | 21628 ft | 389 kts | 37° |
| 2026-04-26 20:23 | 17.53915 | -69.46349 | 21260 ft | 386 kts | 37° |
| 2026-04-26 20:24 | 17.55999 | -69.44588 | 20889 ft | 383 kts | 37° |
| 2026-04-26 20:24 | 17.58070 | -69.42837 | 20521 ft | 381 kts | 37° |
| 2026-04-26 20:24 | 17.60123 | -69.41101 | 20160 ft | 378 kts | 37° |
| 2026-04-26 20:24 | 17.62168 | -69.39372 | 19799 ft | 375 kts | 37° |
| 2026-04-26 20:25 | 17.64171 | -69.37677 | 19442 ft | 373 kts | 37° |
| 2026-04-26 20:25 | 17.64857 | -69.37096 | 19318 ft | 372 kts | 37° |
| 2026-04-26 20:25 | 17.68206 | -69.34261 | 18711 ft | 369 kts | 37° |
| 2026-04-26 20:25 | 17.70205 | -69.32568 | 18357 ft | 367 kts | 37° |
| 2026-04-26 20:26 | 17.72190 | -69.30887 | 17948 ft | 366 kts | 37° |
| 2026-04-26 20:26 | 17.74138 | -69.29236 | 17568 ft | 363 kts | 37° |
| 2026-04-26 20:26 | 17.76100 | -69.27573 | 17199 ft | 361 kts | 37° |
| 2026-04-26 20:26 | 17.78050 | -69.25919 | 16839 ft | 358 kts | 37° |
| 2026-04-26 20:27 | 17.79979 | -69.24283 | 16493 ft | 355 kts | 37° |
| 2026-04-26 20:27 | 17.81891 | -69.22661 | 16171 ft | 351 kts | 38° |
| 2026-04-26 20:27 | 17.83782 | -69.21057 | 15842 ft | 348 kts | 38° |
| 2026-04-26 20:27 | 17.85661 | -69.19461 | 15508 ft | 346 kts | 38° |
| 2026-04-26 20:28 | 17.87525 | -69.17879 | 15167 ft | 344 kts | 38° |
| 2026-04-26 20:28 | 17.89352 | -69.16328 | 15016 ft | 337 kts | 38° |
| 2026-04-26 20:28 | 17.91150 | -69.14799 | 14992 ft | 328 kts | 38° |
| 2026-04-26 20:28 | 17.92891 | -69.13319 | 14980 ft | 315 kts | 38° |
| 2026-04-26 20:29 | 17.94564 | -69.11897 | 14976 ft | 302 kts | 38° |
| 2026-04-26 20:29 | 17.96170 | -69.10531 | 14975 ft | 289 kts | 38° |
| 2026-04-26 20:29 | 17.97687 | -69.09241 | 14977 ft | 277 kts | 37° |
| 2026-04-26 20:29 | 17.99161 | -69.07987 | 14981 ft | 269 kts | 37° |
| 2026-04-26 20:30 | 18.00623 | -69.06745 | 14996 ft | 273 kts | 37° |
| 2026-04-26 20:30 | 18.02127 | -69.05467 | 15007 ft | 281 kts | 37° |
| 2026-04-26 20:30 | 18.03655 | -69.04166 | 15010 ft | 283 kts | 37° |
| 2026-04-26 20:30 | 18.04667 | -69.03304 | 15001 ft | 282 kts | 37° |
| 2026-04-26 20:31 | 18.06675 | -69.01594 | 14987 ft | 279 kts | 37° |
| 2026-04-26 20:31 | 18.08176 | -69.00315 | 14990 ft | 277 kts | 37° |
| 2026-04-26 20:31 | 18.09186 | -68.99455 | 14989 ft | 276 kts | 37° |
| 2026-04-26 20:31 | 18.11162 | -68.97772 | 14995 ft | 275 kts | 37° |
| 2026-04-26 20:32 | 18.12160 | -68.96923 | 14887 ft | 282 kts | 37° |
| 2026-04-26 20:32 | 18.13700 | -68.95612 | 14654 ft | 287 kts | 37° |
| 2026-04-26 20:32 | 18.15255 | -68.94286 | 14432 ft | 287 kts | 38° |
| 2026-04-26 20:32 | 18.16802 | -68.92966 | 14198 ft | 285 kts | 38° |
| 2026-04-26 20:33 | 18.18348 | -68.91648 | 13799 ft | 291 kts | 38° |
| 2026-04-26 20:33 | 18.19946 | -68.90286 | 13269 ft | 299 kts | 38° |
| 2026-04-26 20:33 | 18.21574 | -68.88878 | 12755 ft | 306 kts | 41° |
| 2026-04-26 20:33 | 18.23118 | -68.87304 | 12240 ft | 310 kts | 45° |
| 2026-04-26 20:34 | 18.24612 | -68.85648 | 11733 ft | 311 kts | 46° |
| 2026-04-26 20:34 | 18.26092 | -68.83984 | 11224 ft | 310 kts | 46° |
| 2026-04-26 20:34 | 18.27563 | -68.82337 | 10732 ft | 308 kts | 46° |
| 2026-04-26 20:34 | 18.29019 | -68.80719 | 10238 ft | 307 kts | 46° |
| 2026-04-26 20:35 | 18.30488 | -68.79098 | 9756 ft | 305 kts | 46° |
| 2026-04-26 20:35 | 18.31951 | -68.77490 | 9223 ft | 303 kts | 46° |
| 2026-04-26 20:35 | 18.33413 | -68.75889 | 8699 ft | 302 kts | 46° |
| 2026-04-26 20:35 | 18.34864 | -68.74301 | 8181 ft | 300 kts | 46° |
| 2026-04-26 20:36 | 18.36309 | -68.72721 | 7673 ft | 298 kts | 46° |
| 2026-04-26 20:36 | 18.37747 | -68.71150 | 7190 ft | 297 kts | 46° |
| 2026-04-26 20:36 | 18.39177 | -68.69585 | 6683 ft | 295 kts | 46° |
| 2026-04-26 20:36 | 18.40586 | -68.68047 | 6177 ft | 294 kts | 46° |
| 2026-04-26 20:37 | 18.41999 | -68.66504 | 5807 ft | 288 kts | 47° |
| 2026-04-26 20:37 | 18.43367 | -68.65009 | 5505 ft | 280 kts | 46° |
| 2026-04-26 20:37 | 18.44701 | -68.63553 | 5322 ft | 269 kts | 46° |
| 2026-04-26 20:37 | 18.45979 | -68.62152 | 5187 ft | 262 kts | 46° |
| 2026-04-26 20:38 | 18.47218 | -68.60797 | 5074 ft | 256 kts | 46° |
| 2026-04-26 20:38 | 18.48445 | -68.59456 | 4945 ft | 252 kts | 46° |
| 2026-04-26 20:38 | 18.49659 | -68.58127 | 4829 ft | 251 kts | 46° |
| 2026-04-26 20:38 | 18.50861 | -68.56813 | 4701 ft | 248 kts | 47° |
| 2026-04-26 20:39 | 18.52055 | -68.55505 | 4571 ft | 246 kts | 47° |
| 2026-04-26 20:39 | 18.53056 | -68.54074 | 4416 ft | 242 kts | 71° |
| 2026-04-26 20:39 | 18.53221 | -68.52366 | 4278 ft | 234 kts | 104° |
| 2026-04-26 20:39 | 18.52552 | -68.50842 | 4195 ft | 234 kts | 133° |
| 2026-04-26 20:40 | 18.51260 | -68.49823 | 4065 ft | 234 kts | 161° |
| 2026-04-26 20:40 | 18.49669 | -68.49601 | 3969 ft | 233 kts | 188° |
| 2026-04-26 20:40 | 18.48161 | -68.50221 | 3867 ft | 237 kts | 214° |
| 2026-04-26 20:40 | 18.46919 | -68.51393 | 3746 ft | 238 kts | 225° |
| 2026-04-26 20:41 | 18.45786 | -68.52653 | 3613 ft | 235 kts | 225° |
| 2026-04-26 20:41 | 18.44674 | -68.53894 | 3493 ft | 231 kts | 225° |
| 2026-04-26 20:41 | 18.43588 | -68.55096 | 3356 ft | 227 kts | 225° |
| 2026-04-26 20:41 | 18.42591 | -68.56358 | 3225 ft | 225 kts | 241° |
| 2026-04-26 20:42 | 18.42242 | -68.57957 | 3077 ft | 227 kts | 270° |
| 2026-04-26 20:42 | 18.42654 | -68.59566 | 3022 ft | 232 kts | 298° |
| 2026-04-26 20:42 | 18.43758 | -68.60816 | 3002 ft | 239 kts | 327° |
| 2026-04-26 20:42 | 18.45340 | -68.61319 | 3050 ft | 239 kts | 359° |
| 2026-04-26 20:43 | 18.46955 | -68.60881 | 2997 ft | 244 kts | 31° |
| 2026-04-26 20:43 | 18.48237 | -68.59767 | 3026 ft | 242 kts | 46° |
| 2026-04-26 20:43 | 18.49421 | -68.58470 | 3014 ft | 246 kts | 49° |
| 2026-04-26 20:43 | 18.50599 | -68.57148 | 2991 ft | 247 kts | 48° |
| 2026-04-26 20:44 | 18.51750 | -68.55796 | 2974 ft | 247 kts | 59° |
| 2026-04-26 20:44 | 18.52362 | -68.54147 | 3084 ft | 243 kts | 76° |
| 2026-04-26 20:44 | 18.52873 | -68.52428 | 2875 ft | 241 kts | 73° |
| 2026-04-26 20:44 | 18.53396 | -68.50797 | 2754 ft | 229 kts | 73° |
| 2026-04-26 20:45 | 18.53898 | -68.49273 | 2635 ft | 212 kts | 73° |
| 2026-04-26 20:45 | 18.54368 | -68.47859 | 2498 ft | 202 kts | 73° |
| 2026-04-26 20:45 | 18.54824 | -68.46502 | 2433 ft | 190 kts | 71° |
| 2026-04-26 20:45 | 18.55279 | -68.45207 | 2073 ft | 188 kts | 76° |
| 2026-04-26 20:46 | 18.55592 | -68.43896 | 1817 ft | 174 kts | 82° |
| 2026-04-26 20:46 | 18.55798 | -68.42730 | 1818 ft | 156 kts | 93° |
| 2026-04-26 20:46 | 18.55587 | -68.41651 | 1935 ft | 148 kts | 122° |
| 2026-04-26 20:46 | 18.54945 | -68.40834 | 2222 ft | 145 kts | 150° |
| 2026-04-26 20:47 | 18.53999 | -68.40594 | 2009 ft | 145 kts | 187° |
| 2026-04-26 20:47 | 18.53357 | -68.40830 | 1819 ft | 145 kts | 210° |
| 2026-04-26 20:47 | 18.52581 | -68.41949 | 1574 ft | 145 kts | 250° |
| 2026-04-26 20:47 | 18.52528 | -68.43007 | 1470 ft | 150 kts | 278° |
| 2026-04-26 20:48 | 18.53064 | -68.43984 | 1408 ft | 161 kts | 312° |
| 2026-04-26 20:48 | 18.54059 | -68.44541 | 1439 ft | 166 kts | 349° |
| 2026-04-26 20:48 | 18.55184 | -68.44336 | 1438 ft | 165 kts | 31° |
| 2026-04-26 20:48 | 18.55924 | -68.43451 | 1272 ft | 161 kts | 73° |
| 2026-04-26 20:49 | 18.56148 | -68.42328 | 1054 ft | 157 kts | 84° |
| 2026-04-26 20:49 | 18.56319 | -68.41192 | 765 ft | 155 kts | 87° |
| 2026-04-26 20:49 | 18.56537 | -68.40100 | 518 ft | 148 kts | 78° |
| 2026-04-26 20:49 | 18.56832 | -68.39084 | 292 ft | 144 kts | 79° |
| 2026-04-26 20:50 | 18.57107 | -68.38056 | 56 ft | 146 kts | 80° |
| 2026-04-26 20:50 | 18.57353 | -68.37140 | 48 ft | 102 kts | 73° |
| 2026-04-26 20:50 | 18.57461 | -68.36748 | 45 ft | 49 kts | 74° |
| 2026-04-26 20:50 | 18.57521 | -68.36534 | 46 ft | 25 kts | 73° |
| 2026-04-26 20:51 | 18.57569 | -68.36361 | 45 ft | 24 kts | 74° |
| 2026-04-26 20:51 | 18.57604 | -68.36197 | 47 ft | 23 kts | 86° |
| 2026-04-26 20:51 | 18.57595 | -68.36035 | 48 ft | 22 kts | 101° |
| 2026-04-26 20:51 | 18.57540 | -68.35889 | 47 ft | 21 kts | 131° |
| 2026-04-26 20:52 | 18.57409 | -68.35837 | 47 ft | 21 kts | 178° |
| 2026-04-26 20:52 | 18.57268 | -68.35829 | 47 ft | 20 kts | 178° |
| 2026-04-26 20:52 | 18.57130 | -68.35822 | 45 ft | 19 kts | 177° |
| 2026-04-26 20:52 | 18.56997 | -68.35814 | 46 ft | 19 kts | 177° |
| 2026-04-26 20:53 | 18.56868 | -68.35806 | 46 ft | 18 kts | 176° |
| 2026-04-26 20:53 | 18.56775 | -68.35800 | 46 ft | 13 kts | 176° |
| 2026-04-26 20:53 | 18.56686 | -68.35788 | 47 ft | 13 kts | 174° |
| 2026-04-26 20:53 | 18.56600 | -68.35780 | 47 ft | 12 kts | 175° |
| 2026-04-26 20:54 | 18.56523 | -68.35803 | 48 ft | 12 kts | 237° |
| 2026-04-26 20:54 | 18.56510 | -68.35889 | 48 ft | 12 kts | 264° |
| 2026-04-26 20:54 | 18.56502 | -68.35973 | 48 ft | 11 kts | 266° |
| 2026-04-26 20:54 | 18.56496 | -68.36055 | 48 ft | 11 kts | 265° |
| 2026-04-26 20:55 | 18.56489 | -68.36135 | 49 ft | 11 kts | 261° |
| 2026-04-26 20:55 | 18.56480 | -68.36213 | 49 ft | 11 kts | 265° |
| 2026-04-26 20:55 | 18.56475 | -68.36288 | 49 ft | 10 kts | 266° |
| 2026-04-26 20:55 | 18.56471 | -68.36342 | 49 ft | 8 kts | 266° |
| 2026-04-26 20:56 | 18.56467 | -68.36408 | 50 ft | 9 kts | 268° |
| 2026-04-26 20:56 | 18.56462 | -68.36474 | 50 ft | 9 kts | 263° |
| 2026-04-26 20:56 | 18.56455 | -68.36542 | 50 ft | 11 kts | 268° |
| 2026-04-26 20:56 | 18.56489 | -68.36627 | 50 ft | 15 kts | 309° |
| 2026-04-26 20:57 | 18.56520 | -68.36738 | 51 ft | 15 kts | 236° |
| 2026-04-26 20:57 | 18.56437 | -68.36751 | 51 ft | 7 kts | 176° |
| 2026-04-26 20:57 | 18.56410 | -68.36768 | 51 ft | 5 kts | 250° |
| 2026-04-26 20:57 | 18.56406 | -68.36801 | 51 ft | 0 kts | 264° |